Time;durP1;ratioP1;P1;durP2;ratioP2;P2;SDS_P1;SDS_P2;PMS_P1;PMS_P2;Temp;Humidity;BMP_temperature;BMP_pressure;BME280_temperature;BME280_humidity;BME280_pressure;Samples;Min_cycle;Max_cycle;Signal;HPM_P1;HPM_P2
2022/05/20 21:25:53;;;;;;;;;;;13.60;99.90;;;;;;5092360;27;20378;-49
2022/05/20 21:28:19;;;;;;;8.98;2.38;;;13.40;99.90;;;;;;5091761;28;20010;-52
2022/05/20 21:30:49;;;;;;;14.10;2.70;;;13.40;99.90;;;;;;5074947;28;20101;-50
2022/05/20 21:33:16;;;;;;;11.30;2.67;;;13.50;99.90;;;;;;5086680;28;20047;-54
2022/05/20 21:35:43;;;;;;;11.63;3.33;;;13.50;99.90;;;;;;5090256;28;20048;-52
2022/05/20 21:38:10;;;;;;;14.10;3.65;;;13.60;99.90;;;;;;5084050;28;20048;-49
2022/05/20 21:40:37;;;;;;;13.48;2.92;;;13.60;99.90;;;;;;5076540;28;20055;-49
2022/05/20 21:43:07;;;;;;;14.77;2.78;;;13.60;99.90;;;;;;5074369;28;20060;-55
2022/05/20 21:45:34;;;;;;;13.48;2.83;;;13.60;99.90;;;;;;5078851;28;20036;-53
2022/05/20 21:48:00;;;;;;;10.27;2.97;;;13.60;99.90;;;;;;5077833;28;20040;-56
2022/05/20 21:50:27;;;;;;;15.15;3.80;;;13.60;99.90;;;;;;5083537;28;20040;-52
2022/05/20 21:52:54;;;;;;;9.73;2.47;;;13.60;99.90;;;;;;5075598;28;20087;-51
2022/05/20 21:55:22;;;;;;;16.08;3.08;;;13.60;99.90;;;;;;5076827;28;20041;-48
2022/05/20 21:57:48;;;;;;;15.95;3.00;;;13.60;99.90;;;;;;5074357;28;20033;-51
2022/05/20 22:00:15;;;;;;;12.40;2.92;;;13.60;99.90;;;;;;5080383;28;20044;-49
2022/05/20 22:10:58;;;;;;;11.93;2.72;;;13.50;99.90;;;;;;5073822;28;20482;-51
2022/05/20 22:13:25;;;;;;;9.95;2.42;;;13.50;99.90;;;;;;5077909;28;20075;-44
2022/05/20 22:15:53;;;;;;;11.30;2.70;;;13.50;99.90;;;;;;5072886;28;20041;-51
2022/05/20 22:18:20;;;;;;;11.23;2.50;;;13.50;99.90;;;;;;5073912;28;20029;-48
2022/05/20 22:20:46;;;;;;;9.38;1.85;;;13.50;99.90;;;;;;5080507;28;20110;-53
2022/05/20 22:23:13;;;;;;;8.00;2.13;;;13.50;99.90;;;;;;5077054;28;20033;-49
2022/05/20 22:25:40;;;;;;;10.48;2.38;;;13.40;99.90;;;;;;5074343;28;20049;-50
2022/05/20 22:28:22;;;;;;;8.93;2.15;;;13.40;99.90;;;;;;5076715;28;20036;-52
2022/05/20 22:30:49;;;;;;;9.63;2.88;;;13.40;99.90;;;;;;5071077;28;20440;-50
2022/05/20 22:33:16;;;;;;;9.50;2.10;;;13.40;99.90;;;;;;5078491;28;20510;-55
2022/05/20 22:35:42;;;;;;;9.50;2.33;;;13.40;99.90;;;;;;5065408;28;20447;-52
2022/05/20 22:38:09;;;;;;;10.50;1.95;;;13.30;99.90;;;;;;5060104;28;20083;-50
2022/05/20 22:40:36;;;;;;;5.95;1.85;;;13.30;99.90;;;;;;5057151;28;20040;-52
2022/05/20 22:43:03;;;;;;;9.05;2.33;;;13.30;99.90;;;;;;5067670;28;20040;-50
2022/05/20 22:45:30;;;;;;;9.82;2.20;;;13.30;99.90;;;;;;5070100;28;20374;-51
2022/05/20 22:47:56;;;;;;;7.82;1.95;;;13.30;99.90;;;;;;5063609;28;20028;-50
2022/05/20 22:50:23;;;;;;;9.02;1.88;;;13.20;99.90;;;;;;5065042;28;20155;-52
2022/05/20 22:52:50;;;;;;;10.18;2.13;;;13.20;99.90;;;;;;5059681;28;20505;-54
2022/05/20 22:58:02;;;;;;;10.48;2.13;;;13.10;99.90;;;;;;5059655;28;20491;-50
2022/05/20 23:00:29;;;;;;;7.25;2.30;;;13.10;99.90;;;;;;5056402;28;20099;-47
2022/05/20 23:02:56;;;;;;;11.00;1.90;;;13.10;99.90;;;;;;5067331;28;20036;-55
2022/05/20 23:05:24;;;;;;;13.27;2.88;;;13.10;99.90;;;;;;5069079;28;20045;-49
2022/05/20 23:07:51;;;;;;;6.32;1.88;;;13.00;99.90;;;;;;5055859;28;20464;-55
2022/05/20 23:10:17;;;;;;;9.93;2.55;;;13.00;99.90;;;;;;5062879;28;20033;-50
2022/05/20 23:13:04;;;;;;;9.00;1.92;;;13.00;99.90;;;;;;5058987;28;20037;-54
2022/05/20 23:15:31;;;;;;;9.95;2.20;;;12.90;99.90;;;;;;5067001;28;20049;-50
2022/05/20 23:17:58;;;;;;;8.88;2.10;;;12.90;99.90;;;;;;5062661;28;20060;-50
2022/05/20 23:20:25;;;;;;;9.88;2.05;;;12.90;99.90;;;;;;5059447;28;20475;-53
2022/05/20 23:22:52;;;;;;;12.93;2.28;;;12.80;99.90;;;;;;5068294;28;20052;-56
2022/05/20 23:25:19;;;;;;;9.90;2.30;;;12.80;99.90;;;;;;5050033;28;20048;-55
2022/05/20 23:27:54;;;;;;;8.55;1.80;;;12.80;99.90;;;;;;5067789;28;20373;-51
2022/05/20 23:30:21;;;;;;;9.00;2.08;;;12.70;99.90;;;;;;5058507;28;20361;-51
2022/05/20 23:32:48;;;;;;;8.73;2.22;;;12.70;99.90;;;;;;5055298;28;20095;-45
2022/05/20 23:35:14;;;;;;;8.82;2.20;;;12.70;99.90;;;;;;5055336;28;20407;-47
2022/05/20 23:37:41;;;;;;;10.90;2.15;;;12.70;99.90;;;;;;5055429;28;20377;-47
2022/05/20 23:40:08;;;;;;;13.13;2.20;;;12.70;99.90;;;;;;5054107;28;20380;-51
2022/05/20 23:42:35;;;;;;;11.57;2.42;;;12.70;99.90;;;;;;5061525;28;20045;-51
2022/05/20 23:45:02;;;;;;;10.63;2.47;;;12.60;99.90;;;;;;5055167;28;20048;-51
2022/05/20 23:47:29;;;;;;;8.73;2.13;;;12.60;99.90;;;;;;5053954;28;20044;-57
2022/05/20 23:49:57;;;;;;;12.30;2.15;;;12.60;99.90;;;;;;5055231;28;20490;-53
2022/05/20 23:52:23;;;;;;;11.23;3.00;;;12.60;99.90;;;;;;5068436;28;20040;-51
2022/05/20 23:57:35;;;;;;;12.20;2.88;;;12.50;99.90;;;;;;5074047;28;20132;-52
